Terminal Aerodrome Forecast
Issued by NWS

Home | Current Version | Previous Version | Text Only | Print | Product List | Glossary On
Versions: 1 2 3 4 5 6 7 8 9 10 11 12 13 14 15 16 17 18 19 20 21 22 23 24 25 26 27 28 29 30 31 32 33 34 35 36 37
000
FTAK31 PAFA 291120
TAFAMC
TAF
PAMC 291120Z 2912/3012 VRB03KT P6SM BKN050 OVC100
     FM291500 VRB03KT 6SM BR FEW005 BKN050 OVC100
     FM292100 32004KT P6SM SCT050 BKN100
     FM300300 35005KT P6SM SCT250=

USA.gov is the U.S. government's official web portal to all federal, state and local government web resources and services.